sensor_id;sensor_type;location;lat;lon;timestamp;pressure;altitude;pressure_sealevel;temperature;humidity
19795;BME280;10057;59.402;17.866;2022-08-18T00:01:41;101230.81;;;21.52;69.35
19795;BME280;10057;59.402;17.866;2022-08-18T00:04:10;101227.94;;;21.42;69.47
19795;BME280;10057;59.402;17.866;2022-08-18T00:06:57;101232.81;;;21.37;69.43
19795;BME280;10057;59.402;17.866;2022-08-18T00:09:24;101222.31;;;21.33;69.56
19795;BME280;10057;59.402;17.866;2022-08-18T00:11:57;101230.91;;;21.26;69.67
19795;BME280;10057;59.402;17.866;2022-08-18T00:14:24;101237.25;;;21.25;69.91
19795;BME280;10057;59.402;17.866;2022-08-18T00:16:52;101222.06;;;21.24;69.83
19795;BME280;10057;59.402;17.866;2022-08-18T00:19:20;101228.66;;;21.20;70.23
19795;BME280;10057;59.402;17.866;2022-08-18T00:22:08;101225.19;;;21.18;70.06
19795;BME280;10057;59.402;17.866;2022-08-18T00:24:41;101232.22;;;21.21;70.09
19795;BME280;10057;59.402;17.866;2022-08-18T00:27:27;101228.44;;;21.23;69.92
19795;BME280;10057;59.402;17.866;2022-08-18T00:29:59;101225.84;;;21.22;70.18
19795;BME280;10057;59.402;17.866;2022-08-18T00:32:32;101227.81;;;21.20;69.96
19795;BME280;10057;59.402;17.866;2022-08-18T00:35:07;101227.38;;;21.13;70.25
19795;BME280;10057;59.402;17.866;2022-08-18T00:37:34;101234.94;;;21.08;70.57
19795;BME280;10057;59.402;17.866;2022-08-18T00:40:03;101223.75;;;21.01;70.69
19795;BME280;10057;59.402;17.866;2022-08-18T00:42:30;101229.34;;;20.98;71.00
19795;BME280;10057;59.402;17.866;2022-08-18T00:45:02;101231.97;;;21.00;70.72
19795;BME280;10057;59.402;17.866;2022-08-18T00:47:30;101233.53;;;21.02;70.89
19795;BME280;10057;59.402;17.866;2022-08-18T00:50:12;101239.59;;;21.06;70.87
19795;BME280;10057;59.402;17.866;2022-08-18T00:52:44;101234.66;;;21.00;70.47
19795;BME280;10057;59.402;17.866;2022-08-18T00:55:13;101243.94;;;20.96;70.98
19795;BME280;10057;59.402;17.866;2022-08-18T00:57:43;101251.50;;;20.91;70.81
19795;BME280;10057;59.402;17.866;2022-08-18T01:00:10;101252.56;;;20.88;71.21
19795;BME280;10057;59.402;17.866;2022-08-18T01:02:41;101254.19;;;20.91;71.04
19795;BME280;10057;59.402;17.866;2022-08-18T01:05:15;101255.28;;;20.88;70.98
19795;BME280;10057;59.402;17.866;2022-08-18T01:07:46;101243.84;;;20.85;70.76
19795;BME280;10057;59.402;17.866;2022-08-18T01:10:18;101251.22;;;20.82;71.31
19795;BME280;10057;59.402;17.866;2022-08-18T01:12:48;101251.06;;;20.84;71.10
19795;BME280;10057;59.402;17.866;2022-08-18T01:15:17;101247.53;;;20.83;71.33
19795;BME280;10057;59.402;17.866;2022-08-18T01:17:57;101253.13;;;20.80;71.11
19795;BME280;10057;59.402;17.866;2022-08-18T01:21:03;101256.91;;;20.78;71.09
19795;BME280;10057;59.402;17.866;2022-08-18T01:23:51;101260.81;;;20.74;70.96
19795;BME280;10057;59.402;17.866;2022-08-18T01:26:20;101262.97;;;20.69;71.13
19795;BME280;10057;59.402;17.866;2022-08-18T01:28:48;101270.66;;;20.62;71.35
19795;BME280;10057;59.402;17.866;2022-08-18T01:31:33;101264.59;;;20.58;71.57
19795;BME280;10057;59.402;17.866;2022-08-18T01:34:05;101265.69;;;20.56;71.54
19795;BME280;10057;59.402;17.866;2022-08-18T01:36:35;101269.44;;;20.53;71.83
19795;BME280;10057;59.402;17.866;2022-08-18T01:39:05;101268.47;;;20.54;71.36
19795;BME280;10057;59.402;17.866;2022-08-18T01:41:32;101274.09;;;20.51;71.35
19795;BME280;10057;59.402;17.866;2022-08-18T01:44:00;101262.94;;;20.43;71.44
19795;BME280;10057;59.402;17.866;2022-08-18T01:46:31;101267.03;;;20.36;71.64
19795;BME280;10057;59.402;17.866;2022-08-18T01:49:00;101267.16;;;20.34;71.89
19795;BME280;10057;59.402;17.866;2022-08-18T01:51:28;101267.16;;;20.34;71.93
19795;BME280;10057;59.402;17.866;2022-08-18T01:54:06;101260.69;;;20.37;71.98
19795;BME280;10057;59.402;17.866;2022-08-18T01:56:33;101263.28;;;20.39;71.71
19795;BME280;10057;59.402;17.866;2022-08-18T01:59:02;101262.31;;;20.40;71.45
19795;BME280;10057;59.402;17.866;2022-08-18T02:01:29;101270.38;;;20.40;71.34
19795;BME280;10057;59.402;17.866;2022-08-18T02:04:03;101274.28;;;20.35;71.30
19795;BME280;10057;59.402;17.866;2022-08-18T02:06:52;101270.06;;;20.31;71.57
19795;BME280;10057;59.402;17.866;2022-08-18T02:09:19;101266.63;;;20.29;71.49
19795;BME280;10057;59.402;17.866;2022-08-18T02:11:50;101270.38;;;20.27;71.41
19795;BME280;10057;59.402;17.866;2022-08-18T02:14:22;101271.69;;;20.21;71.76
19795;BME280;10057;59.402;17.866;2022-08-18T02:16:55;101268.44;;;20.16;71.90
19795;BME280;10057;59.402;17.866;2022-08-18T02:19:27;101270.59;;;20.11;71.89
19795;BME280;10057;59.402;17.866;2022-08-18T02:21:57;101266.16;;;20.10;72.16
19795;BME280;10057;59.402;17.866;2022-08-18T02:24:24;101263.47;;;20.10;71.65
19795;BME280;10057;59.402;17.866;2022-08-18T02:26:50;101268.44;;;20.03;71.88
19795;BME280;10057;59.402;17.866;2022-08-18T02:29:17;101276.59;;;20.02;71.96
19795;BME280;10057;59.402;17.866;2022-08-18T02:31:43;101277.56;;;20.01;71.60
19795;BME280;10057;59.402;17.866;2022-08-18T02:34:10;101277.78;;;19.98;72.00
19795;BME280;10057;59.402;17.866;2022-08-18T02:36:36;101274.44;;;19.94;72.09
19795;BME280;10057;59.402;17.866;2022-08-18T02:39:03;101273.59;;;19.94;72.12
19795;BME280;10057;59.402;17.866;2022-08-18T02:41:29;101270.13;;;19.92;72.60
19795;BME280;10057;59.402;17.866;2022-08-18T02:43:57;101262.16;;;19.90;72.52
19795;BME280;10057;59.402;17.866;2022-08-18T02:46:24;101270.13;;;19.92;72.15
19795;BME280;10057;59.402;17.866;2022-08-18T02:48:56;101265.78;;;19.89;72.49
19795;BME280;10057;59.402;17.866;2022-08-18T02:51:24;101258.91;;;19.85;72.48
19795;BME280;10057;59.402;17.866;2022-08-18T02:53:51;101267.19;;;19.82;72.28
19795;BME280;10057;59.402;17.866;2022-08-18T02:56:23;101272.31;;;19.72;72.37
19795;BME280;10057;59.402;17.866;2022-08-18T02:59:09;101271.91;;;19.51;72.61
19795;BME280;10057;59.402;17.866;2022-08-18T03:01:40;101275.22;;;19.42;73.31
19795;BME280;10057;59.402;17.866;2022-08-18T03:04:09;101277.00;;;19.41;73.49
19795;BME280;10057;59.402;17.866;2022-08-18T03:06:37;101277.47;;;19.48;73.32
19795;BME280;10057;59.402;17.866;2022-08-18T03:09:06;101283.50;;;19.52;73.20
19795;BME280;10057;59.402;17.866;2022-08-18T03:11:33;101279.09;;;19.51;73.25
19795;BME280;10057;59.402;17.866;2022-08-18T03:14:00;101286.97;;;19.54;73.24
19795;BME280;10057;59.402;17.866;2022-08-18T03:16:27;101285.72;;;19.59;73.17
19795;BME280;10057;59.402;17.866;2022-08-18T03:19:00;101281.03;;;19.63;72.97
19795;BME280;10057;59.402;17.866;2022-08-18T03:21:29;101282.91;;;19.61;72.79
19795;BME280;10057;59.402;17.866;2022-08-18T03:23:56;101283.31;;;19.55;72.82
19795;BME280;10057;59.402;17.866;2022-08-18T03:26:27;101279.22;;;19.49;73.01
19795;BME280;10057;59.402;17.866;2022-08-18T03:28:57;101278.56;;;19.46;73.13
19795;BME280;10057;59.402;17.866;2022-08-18T03:31:28;101279.81;;;19.40;73.24
19795;BME280;10057;59.402;17.866;2022-08-18T03:33:56;101281.94;;;19.35;73.56
19795;BME280;10057;59.402;17.866;2022-08-18T03:36:28;101283.88;;;19.33;73.68
19795;BME280;10057;59.402;17.866;2022-08-18T03:38:56;101286.25;;;19.37;73.84
19795;BME280;10057;59.402;17.866;2022-08-18T03:41:25;101289.72;;;19.39;73.64
19795;BME280;10057;59.402;17.866;2022-08-18T03:44:13;101285.97;;;19.42;73.31
19795;BME280;10057;59.402;17.866;2022-08-18T03:46:43;101291.13;;;19.45;73.53
19795;BME280;10057;59.402;17.866;2022-08-18T03:49:11;101293.28;;;19.40;73.38
19795;BME280;10057;59.402;17.866;2022-08-18T03:51:40;101298.00;;;19.36;73.84
19795;BME280;10057;59.402;17.866;2022-08-18T03:54:09;101292.69;;;19.35;73.93
19795;BME280;10057;59.402;17.866;2022-08-18T03:56:39;101302.59;;;19.34;73.94
19795;BME280;10057;59.402;17.866;2022-08-18T03:59:21;101302.59;;;19.34;74.00
19795;BME280;10057;59.402;17.866;2022-08-18T04:01:49;101301.06;;;19.30;74.08
19795;BME280;10057;59.402;17.866;2022-08-18T04:04:20;101299.56;;;19.26;74.29
19795;BME280;10057;59.402;17.866;2022-08-18T04:06:50;101299.56;;;19.26;74.34
19795;BME280;10057;59.402;17.866;2022-08-18T04:09:20;101305.13;;;19.23;74.37
19795;BME280;10057;59.402;17.866;2022-08-18T04:11:47;101311.75;;;19.17;74.42
19795;BME280;10057;59.402;17.866;2022-08-18T04:14:17;101313.22;;;19.09;74.57
19795;BME280;10057;59.402;17.866;2022-08-18T04:16:44;101311.69;;;19.05;74.90
19795;BME280;10057;59.402;17.866;2022-08-18T04:19:11;101308.69;;;19.09;74.88
19795;BME280;10057;59.402;17.866;2022-08-18T04:21:40;101310.03;;;19.16;74.94
19795;BME280;10057;59.402;17.866;2022-08-18T04:24:10;101309.53;;;19.24;74.76
19795;BME280;10057;59.402;17.866;2022-08-18T04:26:42;101310.19;;;19.28;74.69
19795;BME280;10057;59.402;17.866;2022-08-18T04:29:12;101311.84;;;19.30;74.65
19795;BME280;10057;59.402;17.866;2022-08-18T04:31:39;101315.31;;;19.32;74.57
19795;BME280;10057;59.402;17.866;2022-08-18T04:34:06;101321.03;;;19.40;74.49
19795;BME280;10057;59.402;17.866;2022-08-18T04:36:34;101308.91;;;19.48;74.39
19795;BME280;10057;59.402;17.866;2022-08-18T04:39:03;101313.03;;;19.53;74.32
19795;BME280;10057;59.402;17.866;2022-08-18T04:41:30;101312.84;;;19.56;74.29
19795;BME280;10057;59.402;17.866;2022-08-18T04:43:59;101321.66;;;19.58;74.21
19795;BME280;10057;59.402;17.866;2022-08-18T04:46:27;101322.53;;;19.59;74.46
19795;BME280;10057;59.402;17.866;2022-08-18T04:48:56;101314.47;;;19.59;74.51
19795;BME280;10057;59.402;17.866;2022-08-18T04:51:27;101318.88;;;19.60;74.71
19795;BME280;10057;59.402;17.866;2022-08-18T04:54:14;101333.75;;;19.65;74.50
19795;BME280;10057;59.402;17.866;2022-08-18T04:56:41;101336.19;;;19.70;74.47
19795;BME280;10057;59.402;17.866;2022-08-18T04:59:12;101328.66;;;19.75;74.51
19795;BME280;10057;59.402;17.866;2022-08-18T05:01:45;101333.44;;;19.84;74.33
19795;BME280;10057;59.402;17.866;2022-08-18T05:04:14;101329.56;;;19.88;74.37
19795;BME280;10057;59.402;17.866;2022-08-18T05:06:43;101331.84;;;19.95;74.64
19795;BME280;10057;59.402;17.866;2022-08-18T05:09:12;101339.50;;;20.01;74.43
19795;BME280;10057;59.402;17.866;2022-08-18T05:11:42;101345.44;;;20.06;74.25
19795;BME280;10057;59.402;17.866;2022-08-18T05:14:10;101342.53;;;20.09;74.46
19795;BME280;10057;59.402;17.866;2022-08-18T05:16:37;101339.63;;;20.12;74.45
19795;BME280;10057;59.402;17.866;2022-08-18T05:19:16;101346.66;;;20.15;74.39
19795;BME280;10057;59.402;17.866;2022-08-18T05:21:50;101341.91;;;20.18;74.26
19795;BME280;10057;59.402;17.866;2022-08-18T05:24:19;101352.50;;;20.21;74.43
19795;BME280;10057;59.402;17.866;2022-08-18T05:26:47;101341.59;;;20.23;74.32
19795;BME280;10057;59.402;17.866;2022-08-18T05:29:15;101349.69;;;20.23;74.56
19795;BME280;10057;59.402;17.866;2022-08-18T05:31:45;101355.72;;;20.26;74.54
19795;BME280;10057;59.402;17.866;2022-08-18T05:34:12;101359.19;;;20.28;74.49
19795;BME280;10057;59.402;17.866;2022-08-18T05:44:28;101372.78;;;20.40;74.28
19795;BME280;10057;59.402;17.866;2022-08-18T05:49:36;101378.53;;;20.48;74.19
19795;BME280;10057;59.402;17.866;2022-08-18T05:52:12;101371.13;;;20.51;74.16
19795;BME280;10057;59.402;17.866;2022-08-18T05:54:46;101377.16;;;20.55;73.98
19795;BME280;10057;59.402;17.866;2022-08-18T05:57:42;101365.94;;;20.61;74.00
19795;BME280;10057;59.402;17.866;2022-08-18T06:00:14;101371.97;;;20.65;74.06
19795;BME280;10057;59.402;17.866;2022-08-18T06:02:57;101382.53;;;20.68;73.90
19795;BME280;10057;59.402;17.866;2022-08-18T06:05:50;101384.94;;;20.72;73.99
19795;BME280;10057;59.402;17.866;2022-08-18T06:08:21;101387.44;;;20.75;73.67
19795;BME280;10057;59.402;17.866;2022-08-18T06:10:50;101391.63;;;20.79;73.95
19795;BME280;10057;59.402;17.866;2022-08-18T06:13:16;101393.91;;;20.86;73.70
19795;BME280;10057;59.402;17.866;2022-08-18T06:21:28;101412.13;;;21.08;73.13
19795;BME280;10057;59.402;17.866;2022-08-18T06:29:58;101410.38;;;21.19;72.74
19795;BME280;10057;59.402;17.866;2022-08-18T06:32:58;101413.84;;;21.21;72.61
19795;BME280;10057;59.402;17.866;2022-08-18T06:35:54;101420.72;;;21.25;72.15
19795;BME280;10057;59.402;17.866;2022-08-18T06:41:18;101423.22;;;21.28;71.52
19795;BME280;10057;59.402;17.866;2022-08-18T06:44:18;101424.19;;;21.27;71.34
19795;BME280;10057;59.402;17.866;2022-08-18T06:50:13;101420.09;;;21.35;71.11
19795;BME280;10057;59.402;17.866;2022-08-18T06:52:53;101413.63;;;21.37;70.63
19795;BME280;10057;59.402;17.866;2022-08-18T06:55:34;101417.94;;;21.40;70.87
19795;BME280;10057;59.402;17.866;2022-08-18T06:58:04;101413.28;;;21.42;70.78
19795;BME280;10057;59.402;17.866;2022-08-18T07:00:34;101414.78;;;21.46;70.34
19795;BME280;10057;59.402;17.866;2022-08-18T07:03:11;101423.44;;;21.51;70.19
19795;BME280;10057;59.402;17.866;2022-08-18T07:06:00;101421.38;;;21.55;70.23
19795;BME280;10057;59.402;17.866;2022-08-18T07:08:36;101423.63;;;21.61;69.95
19795;BME280;10057;59.402;17.866;2022-08-18T07:13:45;101426.28;;;21.73;69.76
19795;BME280;10057;59.402;17.866;2022-08-18T07:19:18;101430.56;;;21.89;69.40
19795;BME280;10057;59.402;17.866;2022-08-18T07:22:02;101432.56;;;21.98;69.17
19795;BME280;10057;59.402;17.866;2022-08-18T07:24:32;101426.84;;;22.03;68.93
19795;BME280;10057;59.402;17.866;2022-08-18T07:29:41;101430.66;;;22.24;68.25
19795;BME280;10057;59.402;17.866;2022-08-18T07:32:35;101426.41;;;22.33;68.13
19795;BME280;10057;59.402;17.866;2022-08-18T07:35:05;101428.38;;;22.42;67.77
19795;BME280;10057;59.402;17.866;2022-08-18T07:37:39;101428.06;;;22.46;67.19
19795;BME280;10057;59.402;17.866;2022-08-18T07:40:31;101428.69;;;22.50;67.17
19795;BME280;10057;59.402;17.866;2022-08-18T07:43:04;101426.47;;;22.55;66.95
19795;BME280;10057;59.402;17.866;2022-08-18T07:45:42;101432.16;;;22.63;66.89
19795;BME280;10057;59.402;17.866;2022-08-18T07:48:20;101436.84;;;22.73;66.46
19795;BME280;10057;59.402;17.866;2022-08-18T07:51:16;101430.72;;;22.82;66.60
19795;BME280;10057;59.402;17.866;2022-08-18T07:54:02;101435.44;;;22.91;66.10
19795;BME280;10057;59.402;17.866;2022-08-18T07:57:05;101436.47;;;23.01;66.05
19795;BME280;10057;59.402;17.866;2022-08-18T08:02:22;101438.94;;;23.27;65.71
19795;BME280;10057;59.402;17.866;2022-08-18T08:05:16;101430.44;;;23.42;65.79
19795;BME280;10057;59.402;17.866;2022-08-18T08:07:54;101427.47;;;23.57;65.13
19795;BME280;10057;59.402;17.866;2022-08-18T08:13:23;101440.03;;;23.80;63.43
19795;BME280;10057;59.402;17.866;2022-08-18T08:21:44;101437.50;;;24.11;62.21
19795;BME280;10057;59.402;17.866;2022-08-18T08:24:33;101436.19;;;24.26;61.73
19795;BME280;10057;59.402;17.866;2022-08-18T08:27:18;101439.47;;;24.52;61.00
19795;BME280;10057;59.402;17.866;2022-08-18T08:32:35;101432.19;;;24.74;60.28
19795;BME280;10057;59.402;17.866;2022-08-18T08:35:26;101431.94;;;24.77;59.68
19795;BME280;10057;59.402;17.866;2022-08-18T08:38:37;101426.22;;;24.80;59.66
19795;BME280;10057;59.402;17.866;2022-08-18T08:41:18;101426.09;;;24.81;59.72
19795;BME280;10057;59.402;17.866;2022-08-18T08:44:13;101430.41;;;24.84;59.59
19795;BME280;10057;59.402;17.866;2022-08-18T08:46:48;101418.44;;;24.87;59.14
19795;BME280;10057;59.402;17.866;2022-08-18T08:49:27;101417.00;;;24.92;59.00
19795;BME280;10057;59.402;17.866;2022-08-18T08:52:01;101410.19;;;24.98;58.59
19795;BME280;10057;59.402;17.866;2022-08-18T08:57:01;101410.25;;;25.08;57.95
19795;BME280;10057;59.402;17.866;2022-08-18T08:59:29;101420.63;;;25.14;58.03
19795;BME280;10057;59.402;17.866;2022-08-18T09:02:05;101422.91;;;25.18;57.80
19795;BME280;10057;59.402;17.866;2022-08-18T09:05:10;101414.81;;;25.28;57.77
19795;BME280;10057;59.402;17.866;2022-08-18T09:11:32;101412.47;;;25.44;57.19
19795;BME280;10057;59.402;17.866;2022-08-18T09:19:53;101403.09;;;25.68;55.68
19795;BME280;10057;59.402;17.866;2022-08-18T09:22:35;101406.69;;;25.78;55.78
19795;BME280;10057;59.402;17.866;2022-08-18T09:42:08;101393.59;;;26.32;53.86
19795;BME280;10057;59.402;17.866;2022-08-18T09:47:08;101400.34;;;26.57;52.93
19795;BME280;10057;59.402;17.866;2022-08-18T09:49:46;101388.28;;;26.69;52.60
19795;BME280;10057;59.402;17.866;2022-08-18T09:57:43;101387.25;;;27.27;52.13
19795;BME280;10057;59.402;17.866;2022-08-18T10:00:28;101380.66;;;27.57;51.66
19795;BME280;10057;59.402;17.866;2022-08-18T10:03:02;101382.59;;;27.92;50.75
19795;BME280;10057;59.402;17.866;2022-08-18T10:05:33;101373.19;;;28.22;49.81
19795;BME280;10057;59.402;17.866;2022-08-18T10:16:28;101375.47;;;28.45;48.67
19795;BME280;10057;59.402;17.866;2022-08-18T10:19:25;101370.75;;;28.37;48.56
19795;BME280;10057;59.402;17.866;2022-08-18T10:22:07;101373.19;;;28.22;48.32
19795;BME280;10057;59.402;17.866;2022-08-18T10:24:45;101377.16;;;28.10;48.92
19795;BME280;10057;59.402;17.866;2022-08-18T10:39:11;101380.41;;;28.14;48.89
19795;BME280;10057;59.402;17.866;2022-08-18T10:41:50;101374.66;;;28.17;49.16
19795;BME280;10057;59.402;17.866;2022-08-18T10:44:21;101371.78;;;28.18;48.81
19795;BME280;10057;59.402;17.866;2022-08-18T10:46:57;101372.63;;;28.19;49.10
19795;BME280;10057;59.402;17.866;2022-08-18T10:49:26;101365.84;;;28.23;49.24
19795;BME280;10057;59.402;17.866;2022-08-18T10:52:07;101361.47;;;28.30;49.24
19795;BME280;10057;59.402;17.866;2022-08-18T11:00:18;101353.47;;;28.46;48.70
19795;BME280;10057;59.402;17.866;2022-08-18T11:02:55;101358.91;;;28.46;48.83
19795;BME280;10057;59.402;17.866;2022-08-18T11:05:45;101361.31;;;28.49;48.76
19795;BME280;10057;59.402;17.866;2022-08-18T11:08:14;101348.53;;;28.50;48.57
19795;BME280;10057;59.402;17.866;2022-08-18T11:10:47;101344.78;;;28.51;48.52
19795;BME280;10057;59.402;17.866;2022-08-18T11:14:10;101342.75;;;28.53;48.65
19795;BME280;10057;59.402;17.866;2022-08-18T11:16:48;101344.88;;;28.59;48.46
19795;BME280;10057;59.402;17.866;2022-08-18T11:19:19;101352.41;;;28.65;48.38
19795;BME280;10057;59.402;17.866;2022-08-18T11:21:50;101346.47;;;28.70;48.04
19795;BME280;10057;59.402;17.866;2022-08-18T11:24:26;101354.34;;;28.73;48.26
19795;BME280;10057;59.402;17.866;2022-08-18T11:27:01;101360.66;;;28.73;48.16
19795;BME280;10057;59.402;17.866;2022-08-18T11:29:35;101360.97;;;28.70;48.32
19795;BME280;10057;59.402;17.866;2022-08-18T11:32:07;101356.75;;;28.76;47.77
19795;BME280;10057;59.402;17.866;2022-08-18T11:34:48;101356.97;;;28.83;47.98
19795;BME280;10057;59.402;17.866;2022-08-18T11:37:36;101368.63;;;28.93;47.89
19795;BME280;10057;59.402;17.866;2022-08-18T11:48:56;101369.09;;;29.14;47.76
19795;BME280;10057;59.402;17.866;2022-08-18T11:51:30;101354.59;;;29.14;47.50
19795;BME280;10057;59.402;17.866;2022-08-18T11:56:29;101344.72;;;29.21;47.33
19795;BME280;10057;59.402;17.866;2022-08-18T11:59:04;101348.31;;;29.21;47.24
19795;BME280;10057;59.402;17.866;2022-08-18T12:01:35;101348.31;;;29.21;47.73
19795;BME280;10057;59.402;17.866;2022-08-18T12:07:08;101343.03;;;29.28;47.69
19795;BME280;10057;59.402;17.866;2022-08-18T12:09:44;101350.59;;;29.34;47.16
19795;BME280;10057;59.402;17.866;2022-08-18T12:12:31;101346.31;;;29.40;47.03
19795;BME280;10057;59.402;17.866;2022-08-18T12:17:50;101352.66;;;29.40;46.91
19795;BME280;10057;59.402;17.866;2022-08-18T12:20:38;101355.53;;;29.39;46.98
19795;BME280;10057;59.402;17.866;2022-08-18T12:23:04;101360.47;;;29.35;46.54
19795;BME280;10057;59.402;17.866;2022-08-18T12:25:31;101362.69;;;29.32;46.87
19795;BME280;10057;59.402;17.866;2022-08-18T12:27:57;101364.56;;;29.31;46.86
19795;BME280;10057;59.402;17.866;2022-08-18T12:30:24;101358.25;;;29.31;47.00
19795;BME280;10057;59.402;17.866;2022-08-18T12:32:51;101356.00;;;29.26;47.11
19795;BME280;10057;59.402;17.866;2022-08-18T12:35:21;101358.91;;;29.24;47.38
19795;BME280;10057;59.402;17.866;2022-08-18T12:37:49;101352.91;;;29.21;47.08
19795;BME280;10057;59.402;17.866;2022-08-18T12:40:36;101350.13;;;29.13;46.99
19795;BME280;10057;59.402;17.866;2022-08-18T12:43:04;101351.66;;;29.07;47.50
19795;BME280;10057;59.402;17.866;2022-08-18T12:45:31;101351.97;;;29.04;47.84
19795;BME280;10057;59.402;17.866;2022-08-18T12:47:58;101335.59;;;29.04;47.84
19795;BME280;10057;59.402;17.866;2022-08-18T12:50:29;101341.59;;;29.08;48.15
19795;BME280;10057;59.402;17.866;2022-08-18T12:53:03;101333.91;;;29.11;48.12
19795;BME280;10057;59.402;17.866;2022-08-18T12:55:35;101330.22;;;29.20;48.03
19795;BME280;10057;59.402;17.866;2022-08-18T12:58:08;101334.00;;;29.27;48.14
19795;BME280;10057;59.402;17.866;2022-08-18T13:00:35;101338.28;;;29.30;48.10
19795;BME280;10057;59.402;17.866;2022-08-18T13:03:02;101332.31;;;29.35;47.81
19795;BME280;10057;59.402;17.866;2022-08-18T13:05:29;101342.53;;;29.33;47.73
19795;BME280;10057;59.402;17.866;2022-08-18T13:08:01;101337.06;;;29.24;47.71
19795;BME280;10057;59.402;17.866;2022-08-18T13:10:31;101332.56;;;29.15;47.83
19795;BME280;10057;59.402;17.866;2022-08-18T13:13:16;101326.25;;;29.15;48.29
19795;BME280;10057;59.402;17.866;2022-08-18T13:15:45;101325.75;;;29.19;47.90
19795;BME280;10057;59.402;17.866;2022-08-18T13:18:26;101333.78;;;29.21;47.94
19795;BME280;10057;59.402;17.866;2022-08-18T13:20:55;101324.22;;;29.17;48.25
19795;BME280;10057;59.402;17.866;2022-08-18T13:23:24;101324.88;;;29.11;47.95
19795;BME280;10057;59.402;17.866;2022-08-18T13:25:53;101323.28;;;29.00;48.35
19795;BME280;10057;59.402;17.866;2022-08-18T13:28:31;101325.94;;;28.92;48.28
19795;BME280;10057;59.402;17.866;2022-08-18T13:31:04;101318.25;;;28.87;48.24
19795;BME280;10057;59.402;17.866;2022-08-18T13:33:32;101327.91;;;28.81;48.40
19795;BME280;10057;59.402;17.866;2022-08-18T13:36:19;101328.75;;;28.74;48.68
19795;BME280;10057;59.402;17.866;2022-08-18T13:38:48;101330.56;;;28.65;48.86
19795;BME280;10057;59.402;17.866;2022-08-18T13:41:21;101334.63;;;28.61;49.01
19795;BME280;10057;59.402;17.866;2022-08-18T13:43:50;101325.38;;;28.54;48.92
19795;BME280;10057;59.402;17.866;2022-08-18T13:46:18;101319.00;;;28.45;49.14
19795;BME280;10057;59.402;17.866;2022-08-18T13:48:56;101327.94;;;28.38;49.30
19795;BME280;10057;59.402;17.866;2022-08-18T13:51:27;101313.41;;;28.29;49.57
19795;BME280;10057;59.402;17.866;2022-08-18T13:53:54;101329.53;;;28.22;49.79
19795;BME280;10057;59.402;17.866;2022-08-18T13:56:41;101321.34;;;28.22;50.07
19795;BME280;10057;59.402;17.866;2022-08-18T13:59:17;101317.06;;;28.20;50.24
19795;BME280;10057;59.402;17.866;2022-08-18T14:01:46;101313.25;;;28.13;50.26
19795;BME280;10057;59.402;17.866;2022-08-18T14:04:18;101311.31;;;28.05;50.41
19795;BME280;10057;59.402;17.866;2022-08-18T14:06:52;101310.94;;;28.00;50.24
19795;BME280;10057;59.402;17.866;2022-08-18T14:09:26;101315.78;;;27.88;50.35
19795;BME280;10057;59.402;17.866;2022-08-18T14:12:05;101317.56;;;27.79;50.63
19795;BME280;10057;59.402;17.866;2022-08-18T14:14:47;101327.09;;;27.65;50.82
19795;BME280;10057;59.402;17.866;2022-08-18T14:17:17;101320.41;;;27.60;51.22
19795;BME280;10057;59.402;17.866;2022-08-18T14:19:44;101321.31;;;27.51;51.43
19795;BME280;10057;59.402;17.866;2022-08-18T14:22:35;101321.94;;;27.45;51.71
19795;BME280;10057;59.402;17.866;2022-08-18T14:25:21;101323.47;;;27.29;52.08
19795;BME280;10057;59.402;17.866;2022-08-18T14:28:06;101326.41;;;27.18;52.60
19795;BME280;10057;59.402;17.866;2022-08-18T14:30:37;101323.97;;;27.15;52.74
19795;BME280;10057;59.402;17.866;2022-08-18T14:33:06;101314.25;;;27.12;53.18
19795;BME280;10057;59.402;17.866;2022-08-18T14:35:36;101326.84;;;27.13;53.24
19795;BME280;10057;59.402;17.866;2022-08-18T14:38:23;101326.00;;;27.13;53.36
19795;BME280;10057;59.402;17.866;2022-08-18T14:40:50;101321.66;;;27.10;53.39
19795;BME280;10057;59.402;17.866;2022-08-18T14:43:19;101321.41;;;27.04;53.65
19795;BME280;10057;59.402;17.866;2022-08-18T14:45:50;101323.00;;;26.97;54.10
19795;BME280;10057;59.402;17.866;2022-08-18T14:48:23;101322.47;;;26.93;54.25
19795;BME280;10057;59.402;17.866;2022-08-18T14:50:54;101323.03;;;26.87;54.39
19795;BME280;10057;59.402;17.866;2022-08-18T14:53:28;101313.63;;;26.81;54.76
19795;BME280;10057;59.402;17.866;2022-08-18T14:55:56;101320.06;;;26.80;54.50
19795;BME280;10057;59.402;17.866;2022-08-18T14:58:26;101309.78;;;26.74;55.03
19795;BME280;10057;59.402;17.866;2022-08-18T15:00:56;101308.34;;;26.70;55.21
19795;BME280;10057;59.402;17.866;2022-08-18T15:03:25;101306.81;;;26.67;55.16
19795;BME280;10057;59.402;17.866;2022-08-18T15:05:58;101312.66;;;26.63;55.23
19795;BME280;10057;59.402;17.866;2022-08-18T15:08:25;101317.56;;;26.59;55.36
19795;BME280;10057;59.402;17.866;2022-08-18T15:10:57;101310.69;;;26.55;55.48
19795;BME280;10057;59.402;17.866;2022-08-18T15:13:25;101307.88;;;26.47;55.47
19795;BME280;10057;59.402;17.866;2022-08-18T15:15:53;101305.13;;;26.37;55.77
19795;BME280;10057;59.402;17.866;2022-08-18T15:18:27;101298.97;;;26.26;56.47
19795;BME280;10057;59.402;17.866;2022-08-18T15:20:54;101295.13;;;26.18;56.53
19795;BME280;10057;59.402;17.866;2022-08-18T15:23:59;101296.44;;;26.14;56.52
19795;BME280;10057;59.402;17.866;2022-08-18T15:26:46;101298.44;;;26.12;56.88